Time;durP1;ratioP1;P1;durP2;ratioP2;P2;SDS_P1;SDS_P2;PMS_P1;PMS_P2;Temp;Humidity;BMP_temperature;BMP_pressure;BME280_temperature;BME280_humidity;BME280_pressure;Samples;Min_cycle;Max_cycle;Signal;HPM_P1;HPM_P2
2023/01/23 00:00:50;;;;;;;2.33;1.58;;;20.30;30.70;;;;;;5029717;28;20179;-55
2023/01/23 00:03:17;;;;;;;3.47;1.73;;;20.30;30.80;;;;;;5025928;28;20116;-55
2023/01/23 00:05:43;;;;;;;2.92;2.13;;;20.30;30.80;;;;;;5029650;28;20132;-55
2023/01/23 00:08:10;;;;;;;4.18;1.80;;;20.30;30.80;;;;;;5025927;28;20026;-53
2023/01/23 00:10:38;;;;;;;3.85;1.45;;;20.30;31.10;;;;;;5027721;28;20033;-53
2023/01/23 00:13:04;;;;;;;5.28;2.22;;;20.20;30.70;;;;;;5028236;28;20032;-52
2023/01/23 00:15:31;;;;;;;2.60;1.65;;;20.30;30.80;;;;;;5029342;28;20033;-55
2023/01/23 00:17:58;;;;;;;3.53;1.77;;;20.20;30.70;;;;;;5033721;28;20029;-50
2023/01/23 00:20:24;;;;;;;3.38;1.77;;;20.20;30.70;;;;;;5033032;28;20045;-54
2023/01/23 00:22:49;;;;;;;3.75;1.63;;;20.20;30.80;;;;;;5032001;28;20036;-52
2023/01/23 00:25:15;;;;;;;5.85;2.33;;;20.20;30.80;;;;;;5030837;28;20021;-51
2023/01/23 00:27:41;;;;;;;3.10;1.60;;;20.20;30.90;;;;;;5033063;28;20413;-54
2023/01/23 00:30:08;;;;;;;3.67;1.80;;;20.20;31.00;;;;;;5020474;28;20091;-55
2023/01/23 00:32:34;;;;;;;2.15;1.70;;;20.20;31.00;;;;;;5032795;28;20029;-55
2023/01/23 00:35:01;;;;;;;3.03;1.50;;;20.20;31.10;;;;;;5031847;28;20045;-54
2023/01/23 00:37:27;;;;;;;3.88;1.40;;;20.20;31.00;;;;;;5017246;28;20025;-51
2023/01/23 00:39:53;;;;;;;2.97;1.70;;;20.20;31.10;;;;;;5032488;28;20117;-54
2023/01/23 00:42:19;;;;;;;4.35;2.00;;;20.20;31.10;;;;;;5030889;28;20461;-52
2023/01/23 00:44:45;;;;;;;3.90;2.25;;;20.20;31.00;;;;;;5017567;28;21976;-52
2023/01/23 00:47:11;;;;;;;4.10;1.98;;;20.10;31.00;;;;;;5030500;28;20025;-55
2023/01/23 00:49:36;;;;;;;2.90;1.60;;;20.20;31.10;;;;;;5019244;28;20037;-52
2023/01/23 00:52:04;;;;;;;2.25;1.65;;;20.20;31.10;;;;;;5030100;28;20065;-55
2023/01/23 00:54:30;;;;;;;3.33;1.92;;;20.10;31.10;;;;;;5020033;28;20072;-55
2023/01/23 00:56:56;;;;;;;3.38;1.50;;;20.10;31.10;;;;;;5028239;28;20079;-54
2023/01/23 00:59:22;;;;;;;2.65;1.85;;;20.10;31.10;;;;;;5023402;28;20038;-54
2023/01/23 01:01:48;;;;;;;3.38;1.70;;;20.10;31.10;;;;;;5017516;28;20108;-54
2023/01/23 01:04:15;;;;;;;3.88;2.00;;;20.10;31.10;;;;;;5019201;28;20348;-56
2023/01/23 01:06:40;;;;;;;3.42;1.70;;;20.10;31.20;;;;;;5029664;28;20025;-55
2023/01/23 01:09:06;;;;;;;3.35;1.73;;;20.10;31.10;;;;;;5031719;28;20461;-57
2023/01/23 01:11:32;;;;;;;4.00;2.03;;;20.10;31.20;;;;;;5031729;28;20076;-54
2023/01/23 01:13:59;;;;;;;3.65;1.67;;;20.10;31.20;;;;;;5020226;28;20433;-54
2023/01/23 01:16:24;;;;;;;2.92;1.80;;;20.00;31.10;;;;;;5016916;28;20021;-54
2023/01/23 01:18:50;;;;;;;4.65;2.20;;;20.10;31.20;;;;;;5029423;28;20034;-53
2023/01/23 01:21:17;;;;;;;2.80;1.70;;;20.10;31.20;;;;;;5015489;28;20056;-56
2023/01/23 01:23:44;;;;;;;4.28;2.00;;;20.00;31.20;;;;;;5024536;28;20021;-52
2023/01/23 01:26:10;;;;;;;3.90;1.92;;;20.00;31.20;;;;;;5020777;28;20075;-54
2023/01/23 01:28:38;;;;;;;2.80;1.70;;;20.00;31.20;;;;;;5030595;28;20512;-51
2023/01/23 01:31:10;;;;;;;1.98;1.60;;;20.00;31.20;;;;;;5016952;28;20449;-51
2023/01/23 01:33:40;;;;;;;3.92;2.00;;;20.00;31.20;;;;;;5029378;28;20056;-53
2023/01/23 01:36:12;;;;;;;4.13;2.00;;;20.00;31.20;;;;;;5031947;28;20083;-54
2023/01/23 01:38:38;;;;;;;3.05;1.80;;;20.00;31.30;;;;;;5031656;28;20030;-49
2023/01/23 01:41:05;;;;;;;4.07;1.88;;;20.00;31.30;;;;;;5032405;28;20052;-52
2023/01/23 01:43:32;;;;;;;3.33;1.85;;;20.00;31.30;;;;;;5030489;28;20033;-54
2023/01/23 01:46:09;;;;;;;3.53;1.73;;;20.00;31.30;;;;;;5018590;28;20077;-53
2023/01/23 01:48:46;;;;;;;3.42;1.83;;;20.00;31.30;;;;;;5017445;28;20114;-50
2023/01/23 01:51:21;;;;;;;2.92;1.98;;;20.00;31.30;;;;;;5014173;28;20107;-53
2023/01/23 01:53:54;;;;;;;3.13;1.98;;;19.90;31.30;;;;;;5031741;28;20120;-54
2023/01/23 01:56:21;;;;;;;5.47;2.42;;;20.00;32.00;;;;;;5038552;28;20088;-55
2023/01/23 01:58:50;;;;;;;4.97;2.40;;;19.90;31.30;;;;;;5013409;28;20026;-56
2023/01/23 02:01:16;;;;;;;4.13;2.13;;;19.90;31.30;;;;;;5025116;28;20703;-56
2023/01/23 02:03:44;;;;;;;4.82;2.08;;;19.90;31.40;;;;;;5030832;28;20451;-54
2023/01/23 02:06:10;;;;;;;3.45;1.90;;;19.90;31.40;;;;;;5017673;28;20033;-55
2023/01/23 02:09:02;;;;;;;3.67;1.67;;;19.90;31.40;;;;;;5007020;28;20033;-54
2023/01/23 02:11:29;;;;;;;5.22;2.40;;;19.90;31.40;;;;;;5036066;28;20357;-54
2023/01/23 02:13:55;;;;;;;2.80;2.03;;;19.90;31.40;;;;;;5029092;28;20634;-54
2023/01/23 02:16:31;;;;;;;4.07;2.10;;;19.90;31.40;;;;;;5026388;28;20124;-54
2023/01/23 02:19:06;;;;;;;2.88;1.80;;;19.90;31.50;;;;;;5030367;28;20064;-55
2023/01/23 02:21:33;;;;;;;;;;;19.90;31.50;;;;;;5020578;28;20057;-52
2023/01/23 02:24:04;;;;;;;3.35;1.95;;;19.90;31.50;;;;;;5019922;28;19913;-55
2023/01/23 02:26:40;;;;;;;4.20;2.20;;;19.80;31.50;;;;;;5027939;28;20038;-57
2023/01/23 02:29:07;;;;;;;3.17;2.10;;;19.90;31.60;;;;;;5013193;28;20034;-55
2023/01/23 02:31:44;;;;;;;3.05;1.90;;;19.80;31.50;;;;;;5017736;28;20021;-53
2023/01/23 02:34:13;;;;;;;3.22;1.95;;;19.80;31.50;;;;;;5023139;28;20129;-55
2023/01/23 02:36:43;;;;;;;3.63;1.73;;;19.80;31.50;;;;;;5028600;28;20108;-55
2023/01/23 02:39:12;;;;;;;3.13;1.67;;;19.80;31.50;;;;;;5013062;28;20022;-50
2023/01/23 02:41:44;;;;;;;2.50;1.85;;;19.80;31.70;;;;;;5015022;28;20033;-51
2023/01/23 02:44:17;;;;;;;4.95;2.30;;;19.80;31.70;;;;;;5018590;28;20434;-53
2023/01/23 02:46:49;;;;;;;3.42;1.83;;;19.80;31.70;;;;;;5019149;28;20029;-50
2023/01/23 02:49:15;;;;;;;3.78;2.08;;;19.80;31.70;;;;;;5025998;28;20064;-52
2023/01/23 02:51:41;;;;;;;3.65;2.00;;;19.80;31.70;;;;;;5019429;28;20489;-50
2023/01/23 02:54:07;;;;;;;4.07;2.00;;;19.80;31.70;;;;;;5020243;28;20052;-53
2023/01/23 02:56:33;;;;;;;4.05;2.15;;;19.80;31.80;;;;;;5020288;28;20469;-52
2023/01/23 03:01:44;;;;;;;3.80;2.20;;;19.80;31.80;;;;;;5019078;28;20036;-55
2023/01/23 03:04:10;;;;;;;4.07;2.15;;;19.80;31.80;;;;;;5029886;28;20013;-51
2023/01/23 03:06:37;;;;;;;4.47;2.00;;;19.80;31.80;;;;;;4998728;28;20384;-56
2023/01/23 03:09:12;;;;;;;3.47;1.80;;;19.70;31.70;;;;;;5030759;28;20043;-55
2023/01/23 03:11:40;;;;;;;4.05;1.90;;;19.70;31.70;;;;;;5028627;28;20442;-56
2023/01/23 03:14:08;;;;;;;3.42;2.00;;;19.70;31.70;;;;;;5018305;28;20041;-53
2023/01/23 03:16:35;;;;;;;3.58;1.88;;;19.70;31.80;;;;;;5012596;28;20125;-56
2023/01/23 03:19:04;;;;;;;2.92;1.65;;;19.70;32.40;;;;;;5018371;28;20113;-55
2023/01/23 03:21:32;;;;;;;3.95;2.10;;;19.70;31.80;;;;;;5015478;28;20042;-50
2023/01/23 03:23:58;;;;;;;3.67;2.28;;;19.70;31.80;;;;;;5018315;28;20049;-50
2023/01/23 03:26:24;;;;;;;4.63;1.90;;;19.70;31.80;;;;;;5018842;28;20026;-54
2023/01/23 03:31:34;;;;;;;3.47;1.60;;;19.70;31.80;;;;;;5019955;28;20041;-54
2023/01/23 03:34:00;;;;;;;3.03;1.85;;;19.70;31.90;;;;;;5026650;28;20052;-51
2023/01/23 03:36:27;;;;;;;2.83;1.75;;;19.70;31.80;;;;;;5016747;28;20037;-51
2023/01/23 03:41:40;;;;;;;3.58;1.80;;;19.70;31.80;;;;;;5020508;28;20171;-52
2023/01/23 03:44:08;;;;;;;3.70;1.95;;;19.60;31.80;;;;;;5016309;28;20064;-51
2023/01/23 03:46:34;;;;;;;3.15;1.92;;;19.60;31.80;;;;;;5013336;28;20049;-49
2023/01/23 03:49:00;;;;;;;4.60;2.10;;;19.60;31.80;;;;;;5002081;28;20029;-56
2023/01/23 03:51:26;;;;;;;5.22;2.28;;;19.60;31.80;;;;;;5020738;28;20091;-54
2023/01/23 03:53:52;;;;;;;4.43;1.92;;;19.60;32.00;;;;;;5019745;28;20033;-56
2023/01/23 03:56:18;;;;;;;3.65;2.10;;;19.60;32.00;;;;;;5021933;28;20040;-50
2023/01/23 03:58:44;;;;;;;5.13;1.90;;;19.60;32.00;;;;;;5017766;28;20441;-53
2023/01/23 04:01:12;;;;;;;3.65;2.00;;;19.60;32.00;;;;;;5017252;28;20334;-54
2023/01/23 04:03:40;;;;;;;3.65;2.00;;;19.60;32.00;;;;;;5019634;28;20026;-54
2023/01/23 04:06:06;;;;;;;2.78;1.80;;;19.60;32.00;;;;;;5018405;28;20112;-52
2023/01/23 04:08:33;;;;;;;2.47;1.90;;;19.60;32.00;;;;;;5023560;28;20030;-55
2023/01/23 04:11:07;;;;;;;3.65;1.95;;;19.60;32.00;;;;;;5018482;28;20086;-52
2023/01/23 04:13:34;;;;;;;3.90;2.08;;;19.60;32.00;;;;;;5018135;28;20044;-54
2023/01/23 04:16:02;;;;;;;4.47;1.90;;;19.60;32.00;;;;;;5020460;28;20431;-54
2023/01/23 04:18:29;;;;;;;3.58;1.85;;;19.60;32.00;;;;;;5023508;28;20022;-55
2023/01/23 04:20:55;;;;;;;3.53;2.28;;;19.60;32.00;;;;;;5012354;28;20485;-54
2023/01/23 04:23:22;;;;;;;3.38;2.10;;;19.50;32.00;;;;;;5023678;28;20095;-54
2023/01/23 04:25:48;;;;;;;2.67;1.80;;;19.60;32.00;;;;;;5021083;28;20071;-54
2023/01/23 04:28:14;;;;;;;2.85;1.73;;;19.50;31.90;;;;;;5033932;28;20025;-51
2023/01/23 04:30:40;;;;;;;4.50;1.80;;;19.50;31.90;;;;;;5013407;28;20485;-54
2023/01/23 04:33:14;;;;;;;4.35;2.35;;;19.50;31.90;;;;;;5019742;28;20117;-50
2023/01/23 04:35:54;;;;;;;3.53;1.98;;;19.50;32.00;;;;;;5023385;28;20037;-54
2023/01/23 04:38:24;;;;;;;3.70;2.15;;;19.50;32.00;;;;;;5019170;28;20032;-49
2023/01/23 04:40:51;;;;;;;3.80;1.73;;;19.50;32.00;;;;;;5021904;28;20059;-53
2023/01/23 04:43:17;;;;;;;4.13;2.10;;;19.50;32.00;;;;;;5018046;28;20038;-54
2023/01/23 04:45:52;;;;;;;3.42;2.08;;;19.50;32.00;;;;;;5018236;28;20038;-56
2023/01/23 04:48:42;;;;;;;4.07;1.80;;;19.50;32.00;;;;;;5021147;28;20021;-54
2023/01/23 04:51:08;;;;;;;3.28;1.77;;;19.50;32.00;;;;;;5019229;28;20036;-54
2023/01/23 04:53:34;;;;;;;2.58;1.80;;;19.50;32.00;;;;;;5030192;28;20033;-53
2023/01/23 04:56:01;;;;;;;3.25;1.90;;;19.50;32.00;;;;;;5020360;28;20041;-51
2023/01/23 04:58:27;;;;;;;5.65;2.15;;;19.50;32.00;;;;;;5024325;28;20033;-54
2023/01/23 05:01:06;;;;;;;3.38;1.92;;;19.50;32.00;;;;;;5015740;28;20026;-53
2023/01/23 05:03:34;;;;;;;3.17;1.98;;;19.40;32.00;;;;;;5030402;28;20037;-53
2023/01/23 05:06:00;;;;;;;3.15;1.75;;;19.40;32.00;;;;;;5015998;28;20483;-54
2023/01/23 05:08:26;;;;;;;3.35;1.75;;;19.40;32.00;;;;;;5012625;28;20040;-53
2023/01/23 05:11:15;;;;;;;3.65;1.70;;;19.40;32.00;;;;;;5023375;28;20080;-56
2023/01/23 05:13:41;;;;;;;3.55;1.90;;;19.40;32.00;;;;;;5022996;28;20053;-55
2023/01/23 05:16:07;;;;;;;4.88;2.42;;;19.40;32.00;;;;;;5023638;28;20018;-54
2023/01/23 05:18:52;;;;;;;5.00;1.83;;;19.40;32.00;;;;;;5014679;28;21558;-53
2023/01/23 05:21:18;;;;;;;3.83;2.15;;;19.40;32.00;;;;;;5018807;28;20046;-54
2023/01/23 05:23:44;;;;;;;3.40;1.92;;;19.40;32.00;;;;;;5035576;28;20431;-55
2023/01/23 05:26:11;;;;;;;3.38;1.80;;;19.40;32.10;;;;;;5019355;28;20036;-52
2023/01/23 05:28:37;;;;;;;3.33;2.03;;;19.40;32.20;;;;;;5034681;28;20025;-52
2023/01/23 05:31:03;;;;;;;3.35;1.90;;;19.40;32.20;;;;;;5001464;28;20034;-54
2023/01/23 05:33:39;;;;;;;3.47;1.90;;;19.40;32.20;;;;;;5020068;28;20049;-54
2023/01/23 05:36:05;;;;;;;2.67;1.80;;;19.40;32.20;;;;;;5020389;28;20056;-53
2023/01/23 05:38:32;;;;;;;3.33;1.80;;;19.40;32.20;;;;;;5014244;28;20022;-53
2023/01/23 05:40:58;;;;;;;3.33;2.03;;;19.40;32.20;;;;;;5009228;28;20029;-53
2023/01/23 05:43:42;;;;;;;4.70;1.98;;;19.40;32.20;;;;;;5029857;28;20071;-53
2023/01/23 05:46:27;;;;;;;3.80;2.10;;;19.30;32.10;;;;;;5013287;28;20079;-54
2023/01/23 05:48:55;;;;;;;3.15;1.90;;;19.30;32.10;;;;;;5015650;28;20172;-53
2023/01/23 05:51:22;;;;;;;3.38;1.95;;;19.30;32.10;;;;;;5029691;28;20120;-51
2023/01/23 05:53:49;;;;;;;2.45;1.83;;;19.30;32.10;;;;;;5019502;28;20021;-54
2023/01/23 05:56:16;;;;;;;2.92;1.90;;;19.40;32.20;;;;;;5019859;28;20030;-50
2023/01/23 05:59:04;;;;;;;2.70;1.90;;;19.40;32.20;;;;;;5030981;28;20449;-54
2023/01/23 06:01:41;;;;;;;3.45;1.90;;;19.30;32.20;;;;;;5018452;28;20037;-49
2023/01/23 06:04:47;;;;;;;4.18;1.85;;;19.30;32.20;;;;;;4944097;29;20067;-51
2023/01/23 06:07:32;;;;;;;4.05;1.90;;;19.30;32.20;;;;;;4940599;28;20042;-53
2023/01/23 06:09:59;;;;;;;3.55;1.90;;;19.30;32.20;;;;;;4983743;28;20100;-51
2023/01/23 06:12:25;;;;;;;4.25;1.77;;;19.30;32.20;;;;;;5018756;28;20025;-52
2023/01/23 06:14:51;;;;;;;3.10;1.70;;;19.30;32.20;;;;;;5029159;28;20507;-52
2023/01/23 06:17:17;;;;;;;3.80;2.10;;;19.30;32.20;;;;;;5018493;28;20498;-54
2023/01/23 06:19:43;;;;;;;3.03;1.63;;;19.30;32.20;;;;;;5017801;28;20433;-52
2023/01/23 06:22:09;;;;;;;3.35;1.75;;;19.30;32.20;;;;;;5009575;28;20456;-54
2023/01/23 06:24:55;;;;;;;3.53;2.00;;;19.30;32.20;;;;;;5026466;28;20515;-54
2023/01/23 06:27:22;;;;;;;3.92;2.20;;;19.30;32.20;;;;;;5029559;28;20049;-52
2023/01/23 06:29:49;;;;;;;4.07;1.90;;;19.30;32.20;;;;;;5017201;28;20037;-50
2023/01/23 06:32:15;;;;;;;3.10;1.80;;;19.30;32.40;;;;;;5019020;28;20040;-56
2023/01/23 06:34:41;;;;;;;3.70;2.10;;;19.30;32.40;;;;;;5020228;28;20045;-55
2023/01/23 06:37:09;;;;;;;3.67;1.80;;;19.30;32.40;;;;;;5015418;28;20441;-50
2023/01/23 06:39:35;;;;;;;4.10;1.90;;;19.20;32.40;;;;;;5016038;28;20122;-55
2023/01/23 06:42:04;;;;;;;3.58;1.90;;;19.20;32.40;;;;;;5015681;28;20021;-50
2023/01/23 06:44:36;;;;;;;3.17;2.13;;;19.30;32.40;;;;;;5019313;28;20044;-50
2023/01/23 06:47:02;;;;;;;3.17;2.00;;;19.30;32.40;;;;;;5015282;28;20072;-54
2023/01/23 06:49:28;;;;;;;3.60;2.00;;;19.30;32.40;;;;;;5015472;28;20029;-50
2023/01/23 06:51:54;;;;;;;3.22;2.00;;;19.20;32.40;;;;;;5020919;28;20021;-53
2023/01/23 06:54:23;;;;;;;2.53;1.80;;;19.20;32.40;;;;;;5018870;28;20041;-53
2023/01/23 06:56:50;;;;;;;3.95;2.05;;;19.20;32.40;;;;;;5016542;28;20216;-55
2023/01/23 06:59:18;;;;;;;4.57;2.33;;;19.20;32.40;;;;;;5014143;28;20036;-54
2023/01/23 07:01:45;;;;;;;3.40;2.03;;;19.20;32.40;;;;;;5014188;28;20029;-55
2023/01/23 07:04:18;;;;;;;4.05;2.10;;;19.20;32.40;;;;;;5010900;28;20116;-55
2023/01/23 07:06:49;;;;;;;3.70;2.17;;;19.20;32.40;;;;;;5019176;28;20045;-56
2023/01/23 07:09:17;;;;;;;3.72;2.17;;;19.20;32.40;;;;;;5014406;28;20084;-54
2023/01/23 07:11:49;;;;;;;4.40;2.10;;;19.20;32.40;;;;;;5015660;28;20022;-53
2023/01/23 07:14:15;;;;;;;3.42;2.20;;;19.20;32.40;;;;;;5013060;28;21731;-53
2023/01/23 07:16:43;;;;;;;3.10;1.90;;;19.20;32.40;;;;;;5032665;28;20465;-52
2023/01/23 07:19:09;;;;;;;3.50;1.95;;;19.20;32.40;;;;;;5020439;28;20118;-53
2023/01/23 07:21:37;;;;;;;3.33;2.20;;;19.20;32.40;;;;;;5019505;28;20037;-52
2023/01/23 07:24:04;;;;;;;3.40;2.10;;;19.20;32.40;;;;;;5016551;28;20052;-54
2023/01/23 07:26:30;;;;;;;2.97;1.80;;;19.20;32.40;;;;;;5024706;28;20029;-54
2023/01/23 07:28:56;;;;;;;3.15;1.92;;;19.20;32.50;;;;;;5028930;28;20029;-53
2023/01/23 07:31:22;;;;;;;3.42;1.70;;;19.20;32.50;;;;;;5029570;28;20061;-54
2023/01/23 07:33:48;;;;;;;3.42;1.75;;;19.20;32.50;;;;;;5029708;28;20049;-54
2023/01/23 07:36:14;;;;;;;2.70;1.60;;;19.20;32.50;;;;;;5020594;28;20121;-55
2023/01/23 07:38:40;;;;;;;4.15;2.13;;;19.20;32.50;;;;;;5028523;28;20385;-54
2023/01/23 07:41:06;;;;;;;2.90;1.70;;;19.20;32.50;;;;;;5029710;28;20048;-54
2023/01/23 07:43:32;;;;;;;2.63;1.77;;;19.20;32.50;;;;;;5031606;28;20096;-49
2023/01/23 07:45:59;;;;;;;2.15;1.52;;;19.20;32.50;;;;;;5025336;28;20038;-54
2023/01/23 07:48:24;;;;;;;5.07;1.92;;;19.20;32.50;;;;;;5025244;28;20030;-53
2023/01/23 07:50:50;;;;;;;3.10;2.15;;;19.10;32.50;;;;;;5021524;28;20036;-51
2023/01/23 07:53:16;;;;;;;3.75;2.10;;;19.20;32.50;;;;;;5020515;28;20390;-53
2023/01/23 07:55:42;;;;;;;3.08;2.05;;;19.20;32.50;;;;;;5022027;28;20051;-53
2023/01/23 07:58:08;;;;;;;3.40;1.90;;;19.20;32.50;;;;;;5004948;28;20116;-53
2023/01/23 08:00:34;;;;;;;2.63;1.95;;;19.10;32.50;;;;;;5014971;28;20037;-54
2023/01/23 08:03:00;;;;;;;2.70;1.90;;;19.10;32.50;;;;;;5019897;28;20389;-54
2023/01/23 08:05:26;;;;;;;3.70;2.35;;;19.10;32.50;;;;;;5022821;28;20041;-54
2023/01/23 08:07:52;;;;;;;2.13;1.92;;;19.10;32.60;;;;;;5019480;28;20035;-53
2023/01/23 08:10:18;;;;;;;2.92;2.00;;;19.10;32.60;;;;;;5001766;28;20021;-55
2023/01/23 08:12:44;;;;;;;2.90;1.90;;;19.10;32.60;;;;;;5007496;28;20353;-51
2023/01/23 08:15:10;;;;;;;2.90;1.90;;;19.10;32.70;;;;;;5019870;28;20484;-52
2023/01/23 08:17:36;;;;;;;3.83;1.67;;;19.10;32.80;;;;;;5022454;28;20117;-49
2023/01/23 08:20:02;;;;;;;3.35;1.83;;;19.20;32.90;;;;;;5018568;28;20117;-56
2023/01/23 08:22:28;;;;;;;3.13;1.70;;;19.20;33.00;;;;;;5021922;28;20476;-52
2023/01/23 08:24:54;;;;;;;2.30;1.50;;;19.20;33.00;;;;;;5020578;28;20033;-55
2023/01/23 08:27:20;;;;;;;4.63;1.65;;;19.20;33.00;;;;;;5022642;28;20021;-53
2023/01/23 08:29:46;;;;;;;3.28;1.50;;;19.30;33.10;;;;;;5021010;28;20062;-54
2023/01/23 08:32:11;;;;;;;2.85;1.80;;;19.30;33.10;;;;;;5017959;28;20248;-54
2023/01/23 08:34:37;;;;;;;2.20;1.55;;;19.30;33.00;;;;;;5022906;28;20099;-57
2023/01/23 08:37:03;;;;;;;2.42;1.50;;;19.40;32.90;;;;;;5025031;28;20095;-54
2023/01/23 08:39:29;;;;;;;2.65;1.40;;;19.40;32.90;;;;;;5031302;28;20445;-56
2023/01/23 08:41:55;;;;;;;2.03;1.23;;;19.50;32.80;;;;;;5025374;28;20445;-54
2023/01/23 08:44:20;;;;;;;2.78;1.35;;;19.60;32.80;;;;;;5033596;28;20056;-56
2023/01/23 08:46:46;;;;;;;2.03;1.58;;;19.60;32.70;;;;;;5036232;28;20104;-53
2023/01/23 08:49:12;;;;;;;2.47;1.30;;;19.70;32.70;;;;;;5034808;28;20033;-54
2023/01/23 08:51:45;;;;;;;3.05;1.60;;;19.70;32.60;;;;;;5026491;28;20095;-54
2023/01/23 08:54:11;;;;;;;2.08;1.52;;;19.80;32.60;;;;;;5027457;28;20460;-51
2023/01/23 08:56:37;;;;;;;2.47;1.70;;;19.80;33.10;;;;;;5025117;28;20034;-51
2023/01/23 08:59:03;;;;;;;2.90;1.73;;;19.90;32.50;;;;;;5016967;28;20637;-55
2023/01/23 09:01:28;;;;;;;2.95;2.05;;;20.00;32.50;;;;;;5024004;28;20346;-53
2023/01/23 09:03:55;;;;;;;1.70;1.45;;;20.00;32.30;;;;;;5027505;28;20026;-49
2023/01/23 09:06:22;;;;;;;2.67;1.40;;;20.00;32.30;;;;;;5024967;28;20026;-55
2023/01/23 09:08:48;;;;;;;2.83;1.50;;;20.10;32.20;;;;;;5022682;28;20057;-54
2023/01/23 09:11:14;;;;;;;1.83;1.40;;;20.20;32.20;;;;;;5014747;28;20048;-55
2023/01/23 09:13:40;;;;;;;2.53;1.65;;;20.20;32.10;;;;;;5026066;28;20076;-54
2023/01/23 09:16:07;;;;;;;4.63;2.08;;;20.20;32.00;;;;;;5025062;28;20045;-53
2023/01/23 09:18:33;;;;;;;3.33;1.70;;;20.20;31.90;;;;;;5019151;28;20082;-53
2023/01/23 09:21:04;;;;;;;2.55;1.60;;;20.30;31.90;;;;;;5018746;28;20053;-57
2023/01/23 09:23:30;;;;;;;4.43;1.60;;;20.30;31.80;;;;;;5023725;28;20053;-54
2023/01/23 09:26:05;;;;;;;3.22;1.60;;;20.30;31.80;;;;;;5022190;28;20427;-52
2023/01/23 09:28:31;;;;;;;2.97;1.63;;;20.40;31.80;;;;;;5016078;28;20060;-53
2023/01/23 09:31:00;;;;;;;3.38;1.70;;;20.40;31.70;;;;;;5022640;28;20417;-55
2023/01/23 09:33:26;;;;;;;2.25;1.60;;;20.40;31.60;;;;;;5029455;28;20342;-53
2023/01/23 09:35:52;;;;;;;2.72;1.58;;;20.50;31.60;;;;;;5035200;28;20037;-53
2023/01/23 09:38:19;;;;;;;4.40;2.20;;;20.50;31.60;;;;;;5035600;28;20029;-56
2023/01/23 09:40:58;;;;;;;2.80;1.83;;;20.50;31.60;;;;;;5035090;28;20079;-55
2023/01/23 09:43:30;;;;;;;3.33;2.20;;;20.50;31.50;;;;;;5034881;28;20029;-51
2023/01/23 09:46:32;;;;;;;2.70;1.60;;;20.50;31.50;;;;;;5034676;28;20033;-53
2023/01/23 09:49:08;;;;;;;3.05;1.83;;;20.50;31.40;;;;;;5032303;28;20085;-56
2023/01/23 09:51:36;;;;;;;2.85;1.73;;;20.50;31.30;;;;;;5033511;28;20030;-54
2023/01/23 09:54:22;;;;;;;2.90;1.98;;;20.50;31.30;;;;;;5034354;28;20060;-56
2023/01/23 09:56:49;;;;;;;2.60;1.75;;;20.60;31.30;;;;;;5032191;28;20029;-53
2023/01/23 09:59:37;;;;;;;2.58;2.00;;;20.60;31.30;;;;;;5034657;28;20033;-55
2023/01/23 10:02:18;;;;;;;3.90;1.98;;;20.60;31.30;;;;;;5033005;28;20037;-54
2023/01/23 10:04:49;;;;;;;4.00;2.08;;;20.60;31.30;;;;;;5034650;28;20044;-54
2023/01/23 10:07:41;;;;;;;3.20;2.10;;;20.60;31.20;;;;;;5032480;28;20021;-53
2023/01/23 10:10:28;;;;;;;2.33;1.77;;;20.60;31.20;;;;;;5030784;28;20025;-52
2023/01/23 10:13:15;;;;;;;3.53;2.20;;;20.50;31.10;;;;;;5033744;28;20029;-55
2023/01/23 10:15:59;;;;;;;2.97;2.00;;;20.60;31.20;;;;;;5032123;28;20036;-55
2023/01/23 10:18:36;;;;;;;4.35;2.58;;;20.60;31.20;;;;;;5034226;28;20116;-55
2023/01/23 10:21:28;;;;;;;3.22;2.20;;;20.50;31.10;;;;;;5034058;28;20045;-53
2023/01/23 10:24:25;;;;;;;3.42;2.03;;;20.60;31.20;;;;;;5033391;28;20112;-54
2023/01/23 10:26:54;;;;;;;2.25;1.88;;;20.50;31.10;;;;;;5033933;28;20491;-53
2023/01/23 10:29:37;;;;;;;2.70;2.15;;;20.50;31.10;;;;;;5034470;28;20025;-55
2023/01/23 10:32:15;;;;;;;3.72;2.30;;;20.60;31.20;;;;;;5033074;28;20036;-54
2023/01/23 10:34:52;;;;;;;3.20;2.30;;;20.50;31.10;;;;;;5032281;28;20080;-52
2023/01/23 10:37:37;;;;;;;3.30;2.20;;;20.50;31.10;;;;;;5021718;28;20061;-55
2023/01/23 10:40:06;;;;;;;3.70;2.30;;;20.60;31.20;;;;;;5033014;28;20029;-55
2023/01/23 10:42:32;;;;;;;2.83;2.15;;;20.50;31.10;;;;;;5033258;28;20025;-55
2023/01/23 10:44:58;;;;;;;3.67;2.45;;;20.50;31.10;;;;;;5034119;28;20108;-53
2023/01/23 10:47:43;;;;;;;2.70;2.00;;;20.50;31.10;;;;;;5033138;28;20137;-54
2023/01/23 10:50:09;;;;;;;;;;;20.50;31.10;;;;;;5032513;28;20389;-55
2023/01/23 10:52:41;;;;;;;2.97;2.25;;;20.50;31.10;;;;;;5033058;28;19927;-54
2023/01/23 10:55:28;;;;;;;3.38;2.20;;;20.50;31.10;;;;;;5031335;28;20044;-55
2023/01/23 10:57:57;;;;;;;3.83;2.08;;;20.50;31.10;;;;;;5032548;28;20029;-53
2023/01/23 11:00:29;;;;;;;3.80;2.17;;;20.50;31.10;;;;;;5032358;28;20075;-56
2023/01/23 11:02:55;;;;;;;4.05;2.53;;;20.50;31.10;;;;;;5032336;28;20033;-55
2023/01/23 11:05:42;;;;;;;3.72;2.50;;;20.50;31.10;;;;;;5033748;28;20056;-55
2023/01/23 11:08:53;;;;;;;3.95;2.58;;;20.50;31.10;;;;;;5032862;28;20160;-54
2023/01/23 11:11:27;;;;;;;3.22;2.60;;;20.50;31.00;;;;;;5027175;28;20067;-52
2023/01/23 11:14:15;;;;;;;3.08;2.42;;;20.50;31.00;;;;;;5033091;28;20410;-56
2023/01/23 11:16:42;;;;;;;3.15;2.33;;;20.50;31.00;;;;;;5031768;28;20047;-52
2023/01/23 11:19:08;;;;;;;3.20;2.35;;;20.60;31.10;;;;;;5032919;28;20108;-55
2023/01/23 11:21:55;;;;;;;2.90;2.50;;;20.60;31.00;;;;;;5032365;28;20556;-54
2023/01/23 11:24:37;;;;;;;3.65;2.60;;;20.60;31.00;;;;;;5030872;28;20056;-51
2023/01/23 11:27:18;;;;;;;3.50;2.47;;;20.60;31.00;;;;;;5031177;28;20041;-51
2023/01/23 11:30:07;;;;;;;4.35;2.70;;;20.60;31.00;;;;;;5032371;28;20017;-54
2023/01/23 11:32:56;;;;;;;3.60;2.33;;;20.60;31.00;;;;;;5030724;28;20402;-55
2023/01/23 11:35:59;;;;;;;2.25;2.05;;;20.60;31.00;;;;;;5032553;28;20042;-54
2023/01/23 11:38:28;;;;;;;2.92;2.20;;;20.60;31.00;;;;;;5033813;28;20025;-54
2023/01/23 11:40:55;;;;;;;2.78;2.25;;;20.60;31.00;;;;;;5031070;28;20029;-55
2023/01/23 11:43:21;;;;;;;3.60;2.30;;;20.60;31.00;;;;;;5034283;28;20033;-52
2023/01/23 11:45:56;;;;;;;3.28;2.47;;;20.60;31.00;;;;;;5034724;28;20036;-55
2023/01/23 11:48:31;;;;;;;2.95;2.10;;;20.60;31.10;;;;;;5033528;28;20104;-54
2023/01/23 11:51:19;;;;;;;3.15;2.20;;;20.60;31.10;;;;;;5034062;28;20116;-56
2023/01/23 11:53:59;;;;;;;4.55;2.55;;;20.70;31.10;;;;;;5031872;28;20422;-54
2023/01/23 11:56:25;;;;;;;2.58;2.22;;;20.60;31.00;;;;;;5032209;28;20033;-52
2023/01/23 11:58:57;;;;;;;2.80;2.13;;;20.60;31.00;;;;;;5041183;28;20030;-54
2023/01/23 12:02:06;;;;;;;3.20;2.20;;;20.60;31.00;;;;;;5033464;28;20029;-55
2023/01/23 12:04:52;;;;;;;3.35;2.20;;;20.60;30.90;;;;;;5034843;28;20053;-53
2023/01/23 12:07:21;;;;;;;3.85;2.10;;;20.60;30.90;;;;;;5034013;28;20025;-55
2023/01/23 12:10:18;;;;;;;2.95;2.22;;;20.60;30.90;;;;;;5034723;28;20109;-55
2023/01/23 12:12:56;;;;;;;3.40;2.28;;;20.60;30.90;;;;;;5035367;28;20480;-56
2023/01/23 12:15:48;;;;;;;2.63;2.25;;;20.60;30.90;;;;;;5037988;28;20499;-55
2023/01/23 12:18:26;;;;;;;3.05;2.30;;;20.60;30.80;;;;;;5036229;28;20113;-51
2023/01/23 12:21:04;;;;;;;3.72;2.00;;;20.60;30.80;;;;;;5038053;28;20088;-54
2023/01/23 12:24:08;;;;;;;3.13;2.13;;;20.60;30.80;;;;;;5038551;28;20437;-54
2023/01/23 12:26:44;;;;;;;2.67;2.40;;;20.70;30.90;;;;;;4959464;28;20085;-51
2023/01/23 12:29:33;;;;;;;3.83;2.28;;;20.60;30.80;;;;;;5025673;28;20432;-55
2023/01/23 12:32:20;;;;;;;2.42;1.92;;;20.60;30.80;;;;;;5017684;28;20037;-54
2023/01/23 12:35:23;;;;;;;2.33;2.00;;;20.70;30.90;;;;;;5035910;28;20033;-54
2023/01/23 12:37:56;;;;;;;3.42;2.33;;;20.60;30.80;;;;;;5034551;28;20051;-58
2023/01/23 12:41:04;;;;;;;3.03;2.25;;;20.60;30.80;;;;;;5034646;28;20631;-56
2023/01/23 12:43:33;;;;;;;3.35;2.10;;;20.60;30.90;;;;;;4996955;28;20516;-57
2023/01/23 12:46:07;;;;;;;2.92;2.50;;;20.60;30.80;;;;;;5020335;28;20037;-55
2023/01/23 12:48:54;;;;;;;3.45;2.30;;;20.60;30.80;;;;;;5037006;28;20369;-56
2023/01/23 12:51:31;;;;;;;3.25;2.53;;;20.60;30.80;;;;;;5035663;28;20021;-55
2023/01/23 12:54:03;;;;;;;2.92;2.00;;;20.60;30.70;;;;;;5036733;28;20048;-52
2023/01/23 12:56:34;;;;;;;2.50;2.30;;;20.60;30.70;;;;;;5018836;28;20075;-55
2023/01/23 12:59:29;;;;;;;2.80;2.45;;;20.60;30.80;;;;;;5036672;28;20087;-51
2023/01/23 13:02:40;;;;;;;2.58;2.38;;;20.60;30.70;;;;;;5041918;28;20105;-54
2023/01/23 13:05:33;;;;;;;4.25;2.50;;;20.60;30.70;;;;;;5025081;28;20350;-60
2023/01/23 13:08:20;;;;;;;3.53;2.10;;;20.60;30.90;;;;;;4981238;28;20048;-52
2023/01/23 13:13:58;;;;;;;2.70;2.20;;;20.70;31.50;;;;;;5034522;28;20033;-56
2023/01/23 13:16:45;;;;;;;2.97;2.30;;;20.70;31.60;;;;;;5009356;28;20041;-57
2023/01/23 13:22:17;;;;;;;2.50;1.98;;;20.90;31.70;;;;;;5015051;28;20115;-56
2023/01/23 13:25:13;;;;;;;2.88;2.03;;;21.00;31.70;;;;;;5027128;28;20030;-55